createdAt,value
2019-03-31T00:02:02.315Z,100961.00
2019-03-31T00:07:04.806Z,100952.61
2019-03-31T00:12:07.273Z,100956.21
2019-03-31T00:17:09.743Z,100961.25
2019-03-31T00:22:12.209Z,100962.06
2019-03-31T00:27:14.681Z,100961.16
2019-03-31T00:32:17.149Z,100972.52
2019-03-31T00:37:19.623Z,100977.13
2019-03-31T00:42:22.090Z,100983.39
2019-03-31T00:47:24.565Z,100986.66
2019-03-31T00:52:27.041Z,100990.65
2019-03-31T00:57:29.557Z,100979.69
2019-03-31T01:02:32.036Z,100975.34
2019-03-31T01:07:34.531Z,100971.65
2019-03-31T01:12:36.994Z,100961.50
2019-03-31T01:17:39.470Z,100957.28
2019-03-31T01:22:41.934Z,100956.80
2019-03-31T01:27:44.406Z,100957.16
2019-03-31T01:32:46.878Z,100959.64
2019-03-31T01:37:49.398Z,100972.73
2019-03-31T01:42:51.874Z,100970.41
2019-03-31T01:47:54.685Z,100966.80
2019-03-31T01:52:57.173Z,100973.11
2019-03-31T01:57:59.650Z,100977.96
2019-03-31T02:03:02.129Z,100971.75
2019-03-31T02:08:04.618Z,100982.11
2019-03-31T02:13:07.090Z,100974.36
2019-03-31T02:18:09.564Z,100971.64
2019-03-31T02:23:12.024Z,100973.80
2019-03-31T02:28:14.460Z,100965.16
2019-03-31T02:33:16.929Z,100970.55
2019-03-31T02:38:19.372Z,100968.60
2019-03-31T02:43:21.822Z,100968.75
2019-03-31T02:48:24.283Z,100963.69
2019-03-31T02:53:26.741Z,100965.73
2019-03-31T02:58:29.213Z,100962.48
2019-03-31T03:03:31.649Z,100961.45
2019-03-31T03:08:34.143Z,100961.41
2019-03-31T03:13:40.305Z,100959.80
2019-03-31T03:18:42.763Z,100966.03
2019-03-31T03:23:45.253Z,100965.86
2019-03-31T03:28:47.712Z,100966.86
2019-03-31T03:33:50.182Z,100973.73
2019-03-31T03:38:52.645Z,100976.51
2019-03-31T03:43:59.582Z,100967.67
2019-03-31T03:48:57.650Z,100980.44
2019-03-31T03:54:00.023Z,100967.41
2019-03-31T03:59:02.479Z,100970.98
2019-03-31T04:04:05.092Z,100982.65
2019-03-31T04:09:07.397Z,100965.94
2019-03-31T04:14:09.857Z,100970.30
2019-03-31T04:19:12.410Z,100966.63
2019-03-31T04:24:14.935Z,100964.20
2019-03-31T04:29:17.403Z,100969.44
2019-03-31T04:34:19.865Z,100968.39
2019-03-31T04:39:22.325Z,100971.47
2019-03-31T04:44:24.784Z,100966.33
2019-03-31T04:49:27.237Z,100966.59
2019-03-31T04:54:29.730Z,100973.75
2019-03-31T04:59:32.306Z,100972.48
2019-03-31T05:04:34.771Z,100968.81
2019-03-31T05:09:37.235Z,100972.77
2019-03-31T05:14:39.694Z,100975.42
2019-03-31T05:19:42.159Z,100983.56
2019-03-31T05:24:44.723Z,100970.09
2019-03-31T05:29:47.174Z,100973.19
2019-03-31T05:34:49.689Z,100980.58
2019-03-31T05:39:52.155Z,100982.56
2019-03-31T05:44:54.631Z,100988.73
2019-03-31T05:49:57.089Z,100984.47
2019-03-31T05:54:59.559Z,100994.23
2019-03-31T06:00:02.025Z,100998.98
2019-03-31T06:05:04.485Z,101005.45
2019-03-31T06:10:06.941Z,101012.81
2019-03-31T06:15:09.417Z,101011.95
2019-03-31T06:20:11.894Z,101018.91
2019-03-31T06:25:14.380Z,101011.00
2019-03-31T06:30:16.824Z,101015.69
2019-03-31T06:35:19.301Z,101022.52
2019-03-31T06:40:24.474Z,101026.95
2019-03-31T06:45:26.999Z,101023.37
2019-03-31T06:50:29.506Z,101026.15
2019-03-31T06:55:31.979Z,101028.34
2019-03-31T07:00:34.478Z,101033.70
2019-03-31T07:05:36.957Z,101030.34
2019-03-31T07:10:39.429Z,101032.41
2019-03-31T07:15:41.913Z,101042.19
2019-03-31T07:20:44.392Z,101036.36
2019-03-31T07:25:46.854Z,101037.41
2019-03-31T07:30:49.323Z,101030.36
2019-03-31T07:35:51.795Z,101032.67
2019-03-31T07:40:54.629Z,101034.34
2019-03-31T07:45:56.749Z,101029.36
2019-03-31T07:50:59.207Z,101039.20
2019-03-31T07:56:01.844Z,101030.87
2019-03-31T08:01:04.305Z,101035.19
2019-03-31T08:06:06.784Z,101035.70
2019-03-31T08:11:09.270Z,101039.39
2019-03-31T08:16:11.777Z,101052.34
2019-03-31T08:21:14.239Z,101060.55
2019-03-31T08:26:16.735Z,101051.94
2019-03-31T08:31:19.278Z,101043.09
2019-03-31T08:36:21.756Z,101046.55
2019-03-31T08:41:24.233Z,101054.10
2019-03-31T08:46:26.734Z,101047.80
2019-03-31T08:51:29.233Z,101037.81
2019-03-31T08:56:31.746Z,101038.03
2019-03-31T09:01:34.205Z,101039.95
2019-03-31T09:06:36.713Z,101028.80
2019-03-31T09:11:39.203Z,101025.92
2019-03-31T09:16:42.883Z,101018.62
2019-03-31T09:21:45.278Z,101020.56
2019-03-31T09:26:47.765Z,101021.91
2019-03-31T09:31:52.838Z,101017.73
2019-03-31T09:36:55.326Z,101016.33
2019-03-31T09:41:57.828Z,101021.57
2019-03-31T09:47:00.307Z,101016.59
2019-03-31T09:52:02.784Z,101011.93
2019-03-31T09:57:05.252Z,101007.03
2019-03-31T10:02:07.717Z,100994.63
2019-03-31T10:07:10.191Z,100995.66
2019-03-31T10:12:12.674Z,100987.55
2019-03-31T10:17:15.136Z,100987.14
2019-03-31T10:22:17.606Z,100972.26
2019-03-31T10:27:20.073Z,100971.05
2019-03-31T10:32:22.546Z,100967.12
2019-03-31T10:37:25.022Z,100955.20
2019-03-31T10:42:27.499Z,100956.67
2019-03-31T10:47:29.952Z,100945.48
2019-03-31T10:52:32.426Z,100941.30
2019-03-31T10:57:34.891Z,100940.30
2019-03-31T11:02:37.354Z,100927.88
2019-03-31T11:07:39.936Z,100933.48
2019-03-31T11:12:42.397Z,100930.31
2019-03-31T11:17:44.895Z,100923.28
2019-03-31T11:22:50.358Z,100925.51
2019-03-31T11:27:52.816Z,100923.58
2019-03-31T11:32:55.281Z,100918.69
2019-03-31T11:37:57.746Z,100907.59
2019-03-31T11:43:00.224Z,100905.77
2019-03-31T11:48:02.700Z,100890.05
2019-03-31T11:53:05.199Z,100888.91
2019-03-31T11:58:07.800Z,100888.44
2019-03-31T12:03:10.360Z,100894.23
2019-03-31T12:08:12.807Z,100874.42
2019-03-31T12:13:15.280Z,100866.16
2019-03-31T12:18:17.797Z,100867.64
2019-03-31T12:23:20.280Z,100858.00
2019-03-31T12:28:22.775Z,100851.36
2019-03-31T12:33:25.255Z,100847.23
2019-03-31T12:38:27.716Z,100845.59
2019-03-31T12:43:30.277Z,100842.32
2019-03-31T12:48:32.759Z,100836.69
2019-03-31T12:53:35.333Z,100826.69
2019-03-31T12:58:37.811Z,100824.89
2019-03-31T13:03:40.302Z,100828.44
2019-03-31T13:08:42.800Z,100813.89
2019-03-31T13:13:45.243Z,100813.90
2019-03-31T13:18:47.712Z,100813.21
2019-03-31T13:23:50.226Z,100809.36
2019-03-31T13:28:52.722Z,100801.09
2019-03-31T13:33:55.222Z,100802.59
2019-03-31T13:38:57.689Z,100799.53
2019-03-31T13:44:00.166Z,100794.13
2019-03-31T13:49:02.644Z,100791.94
2019-03-31T13:54:05.098Z,100783.64
2019-03-31T13:59:09.225Z,100789.64
2019-03-31T14:04:10.095Z,100773.31
2019-03-31T14:09:12.592Z,100772.09
2019-03-31T14:14:15.150Z,100777.34
2019-03-31T14:19:17.537Z,100773.01
2019-03-31T14:24:19.998Z,100766.89
2019-03-31T14:29:22.479Z,100765.77
2019-03-31T14:34:24.989Z,100760.66
2019-03-31T14:39:27.471Z,100756.70
2019-03-31T14:44:29.929Z,100748.89
2019-03-31T14:49:32.403Z,100747.01
2019-03-31T14:54:34.910Z,100747.44
2019-03-31T14:59:37.403Z,100741.27
2019-03-31T15:04:39.871Z,100745.56
2019-03-31T15:09:42.335Z,100740.59
2019-03-31T15:14:44.814Z,100741.59
2019-03-31T15:19:47.283Z,100738.22
2019-03-31T15:24:49.761Z,100732.34
2019-03-31T15:29:52.206Z,100739.22
2019-03-31T15:34:54.682Z,100725.98
2019-03-31T15:39:58.267Z,100725.52
2019-03-31T15:44:59.729Z,100722.01
2019-03-31T15:50:02.206Z,100725.95
2019-03-31T15:55:04.664Z,100726.02
2019-03-31T16:00:07.346Z,100724.55
2019-03-31T16:05:12.557Z,100718.44
2019-03-31T16:10:12.074Z,100721.44
2019-03-31T16:15:14.551Z,100722.42
2019-03-31T16:20:17.045Z,100717.17
2019-03-31T16:25:22.411Z,100717.08
2019-03-31T16:30:24.884Z,100715.11
2019-03-31T16:35:27.387Z,100722.63
2019-03-31T16:40:29.857Z,100725.05
2019-03-31T16:45:32.346Z,100729.17
2019-03-31T16:50:34.821Z,100730.33
2019-03-31T16:55:37.309Z,100730.59
2019-03-31T17:00:39.779Z,100738.50
2019-03-31T17:05:42.248Z,100735.30
2019-03-31T17:10:44.748Z,100743.17
2019-03-31T17:15:47.201Z,100744.39
2019-03-31T17:20:49.674Z,100739.91
2019-03-31T17:25:52.152Z,100746.20
2019-03-31T17:30:54.632Z,100742.59
2019-03-31T17:35:57.120Z,100748.00
2019-03-31T17:40:59.613Z,100748.22
2019-03-31T17:46:02.070Z,100752.81
2019-03-31T17:51:04.532Z,100749.47
2019-03-31T17:56:07.008Z,100751.80
2019-03-31T18:01:09.509Z,100753.95
2019-03-31T18:06:11.999Z,100758.88
2019-03-31T18:11:14.506Z,100763.13
2019-03-31T18:16:16.973Z,100760.75
2019-03-31T18:21:19.470Z,100770.79
2019-03-31T18:26:21.954Z,100777.61
2019-03-31T18:31:24.445Z,100787.80
2019-03-31T18:36:36.397Z,100794.09
2019-03-31T18:41:29.457Z,100805.92
2019-03-31T18:46:31.958Z,100809.95
2019-03-31T18:51:34.442Z,100817.25
2019-03-31T18:56:42.930Z,100823.81
2019-03-31T19:01:45.428Z,100826.77
2019-03-31T19:06:56.749Z,100833.09
2019-03-31T19:12:17.419Z,100834.88
2019-03-31T19:17:19.900Z,100842.60
2019-03-31T19:22:34.357Z,100843.20
2019-03-31T19:27:49.066Z,100861.58
2019-03-31T19:32:51.546Z,100858.20
2019-03-31T19:37:54.040Z,100871.03
2019-03-31T19:43:02.433Z,100893.31
2019-03-31T19:48:07.784Z,100889.56
2019-03-31T19:53:26.499Z,100894.30
2019-03-31T19:58:29.026Z,100906.31
2019-03-31T20:03:31.485Z,100906.12
2019-03-31T20:08:33.964Z,100910.45
2019-03-31T20:13:45.479Z,100920.70
2019-03-31T20:18:57.012Z,100932.28
2019-03-31T20:23:59.493Z,100934.00
2019-03-31T20:29:07.910Z,100941.47
2019-03-31T20:34:16.395Z,100949.89
2019-03-31T20:39:37.375Z,100947.25
2019-03-31T20:44:39.898Z,100960.25
2019-03-31T20:49:42.390Z,100962.42
2019-03-31T20:54:44.873Z,100955.74
2019-03-31T20:59:47.484Z,100959.38
2019-03-31T21:04:49.835Z,100972.13
2019-03-31T21:09:52.329Z,100978.55
2019-03-31T21:14:54.804Z,100979.06
2019-03-31T21:19:58.390Z,100975.61
2019-03-31T21:25:00.977Z,100986.03
2019-03-31T21:30:03.454Z,100986.12
2019-03-31T21:35:05.938Z,100988.78
2019-03-31T21:40:08.424Z,100991.49
2019-03-31T21:45:10.901Z,100990.16
2019-03-31T21:50:13.394Z,100988.75
2019-03-31T21:55:15.893Z,101001.43
2019-03-31T22:00:18.374Z,100997.48
2019-03-31T22:05:20.883Z,100997.32
2019-03-31T22:10:23.394Z,101009.29
2019-03-31T22:15:25.878Z,101007.96
2019-03-31T22:20:28.375Z,101007.98
2019-03-31T22:25:30.840Z,101011.81
2019-03-31T22:30:33.352Z,101006.11
2019-03-31T22:35:35.822Z,101010.27
2019-03-31T22:40:38.297Z,101009.47
2019-03-31T22:45:40.770Z,101004.81
2019-03-31T22:50:43.238Z,101003.75
2019-03-31T22:55:45.697Z,101007.39
2019-03-31T23:00:48.162Z,101013.81
2019-03-31T23:05:50.634Z,101014.05
2019-03-31T23:10:53.132Z,101013.55
2019-03-31T23:15:55.591Z,101004.44
2019-03-31T23:20:58.079Z,101009.89
2019-03-31T23:26:00.576Z,101012.05
2019-03-31T23:31:03.816Z,101008.17
2019-03-31T23:36:05.528Z,101017.16
2019-03-31T23:41:07.982Z,101010.72
2019-03-31T23:46:10.450Z,101011.33
2019-03-31T23:51:12.921Z,101011.59
2019-03-31T23:56:15.399Z,101010.45
